sensor_id;sensor_type;location;lat;lon;timestamp;temperature;humidity
69328;DHT22;56472;52.114;5.492;2023-03-20T00:02:05;11.70;82.20
69328;DHT22;56472;52.114;5.492;2023-03-20T00:04:33;11.70;82.30
69328;DHT22;56472;52.114;5.492;2023-03-20T00:07:00;11.70;82.30
69328;DHT22;56472;52.114;5.492;2023-03-20T00:09:27;11.70;82.30
69328;DHT22;56472;52.114;5.492;2023-03-20T00:11:54;11.70;82.20
69328;DHT22;56472;52.114;5.492;2023-03-20T00:14:22;11.70;82.30
69328;DHT22;56472;52.114;5.492;2023-03-20T00:16:51;11.70;82.20
69328;DHT22;56472;52.114;5.492;2023-03-20T00:19:22;11.80;82.30
69328;DHT22;56472;52.114;5.492;2023-03-20T00:21:51;11.70;82.00
69328;DHT22;56472;52.114;5.492;2023-03-20T00:24:18;11.70;81.80
69328;DHT22;56472;52.114;5.492;2023-03-20T00:26:46;11.70;81.90
69328;DHT22;56472;52.114;5.492;2023-03-20T00:29:25;11.60;81.90
69328;DHT22;56472;52.114;5.492;2023-03-20T00:31:54;11.60;82.00
69328;DHT22;56472;52.114;5.492;2023-03-20T00:34:23;11.60;82.20
69328;DHT22;56472;52.114;5.492;2023-03-20T00:36:52;11.70;82.20
69328;DHT22;56472;52.114;5.492;2023-03-20T00:39:20;11.70;82.20
69328;DHT22;56472;52.114;5.492;2023-03-20T00:41:55;11.70;82.10
69328;DHT22;56472;52.114;5.492;2023-03-20T00:47:25;11.80;81.90
69328;DHT22;56472;52.114;5.492;2023-03-20T00:49:53;11.80;81.70
69328;DHT22;56472;52.114;5.492;2023-03-20T00:52:22;11.80;81.60
69328;DHT22;56472;52.114;5.492;2023-03-20T00:54:50;11.80;81.70
69328;DHT22;56472;52.114;5.492;2023-03-20T00:57:29;11.80;81.70
69328;DHT22;56472;52.114;5.492;2023-03-20T01:00:11;11.70;81.70
69328;DHT22;56472;52.114;5.492;2023-03-20T01:02:43;11.70;81.80
69328;DHT22;56472;52.114;5.492;2023-03-20T01:05:11;11.70;81.90
69328;DHT22;56472;52.114;5.492;2023-03-20T01:07:38;11.60;81.90
69328;DHT22;56472;52.114;5.492;2023-03-20T01:10:06;11.60;82.10
69328;DHT22;56472;52.114;5.492;2023-03-20T01:12:33;11.60;82.20
69328;DHT22;56472;52.114;5.492;2023-03-20T01:15:01;11.50;82.20
69328;DHT22;56472;52.114;5.492;2023-03-20T01:17:28;11.50;82.30
69328;DHT22;56472;52.114;5.492;2023-03-20T01:19:55;11.50;82.50
69328;DHT22;56472;52.114;5.492;2023-03-20T01:22:23;11.50;82.60
69328;DHT22;56472;52.114;5.492;2023-03-20T01:24:49;11.50;82.60
69328;DHT22;56472;52.114;5.492;2023-03-20T01:27:18;11.50;82.50
69328;DHT22;56472;52.114;5.492;2023-03-20T01:29:45;11.60;82.40
69328;DHT22;56472;52.114;5.492;2023-03-20T01:32:18;11.60;82.20
69328;DHT22;56472;52.114;5.492;2023-03-20T01:34:49;11.60;82.00
69328;DHT22;56472;52.114;5.492;2023-03-20T01:37:25;11.70;81.80
69328;DHT22;56472;52.114;5.492;2023-03-20T01:39:54;11.70;81.70
69328;DHT22;56472;52.114;5.492;2023-03-20T01:42:21;11.70;81.40
69328;DHT22;56472;52.114;5.492;2023-03-20T01:44:48;11.60;81.20
69328;DHT22;56472;52.114;5.492;2023-03-20T01:47:18;11.60;80.80
69328;DHT22;56472;52.114;5.492;2023-03-20T01:53:23;11.50;80.70
69328;DHT22;56472;52.114;5.492;2023-03-20T01:55:55;11.60;80.50
69328;DHT22;56472;52.114;5.492;2023-03-20T01:58:36;11.60;81.20
69328;DHT22;56472;52.114;5.492;2023-03-20T02:01:05;11.60;80.20
69328;DHT22;56472;52.114;5.492;2023-03-20T02:03:34;11.60;80.10
69328;DHT22;56472;52.114;5.492;2023-03-20T02:06:23;11.60;80.00
69328;DHT22;56472;52.114;5.492;2023-03-20T02:09:06;11.60;79.70
69328;DHT22;56472;52.114;5.492;2023-03-20T02:11:40;11.60;79.40
69328;DHT22;56472;52.114;5.492;2023-03-20T02:14:08;11.60;79.10
69328;DHT22;56472;52.114;5.492;2023-03-20T02:16:46;11.60;78.90
69328;DHT22;56472;52.114;5.492;2023-03-20T02:19:30;11.60;78.80
69328;DHT22;56472;52.114;5.492;2023-03-20T02:27:23;11.60;78.90
69328;DHT22;56472;52.114;5.492;2023-03-20T02:41:18;11.50;78.70
69328;DHT22;56472;52.114;5.492;2023-03-20T02:49:25;11.50;78.70
69328;DHT22;56472;52.114;5.492;2023-03-20T02:52:34;11.50;78.60
69328;DHT22;56472;52.114;5.492;2023-03-20T03:00:33;11.50;78.50
69328;DHT22;56472;52.114;5.492;2023-03-20T03:03:05;11.50;78.70
69328;DHT22;56472;52.114;5.492;2023-03-20T03:08:18;11.50;78.70
69328;DHT22;56472;52.114;5.492;2023-03-20T03:11:00;11.50;78.70
69328;DHT22;56472;52.114;5.492;2023-03-20T03:13:32;11.50;78.60
69328;DHT22;56472;52.114;5.492;2023-03-20T03:16:09;11.50;78.50
69328;DHT22;56472;52.114;5.492;2023-03-20T03:18:38;11.50;78.40
69328;DHT22;56472;52.114;5.492;2023-03-20T03:21:07;11.40;78.40
69328;DHT22;56472;52.114;5.492;2023-03-20T03:23:48;11.40;78.40
69328;DHT22;56472;52.114;5.492;2023-03-20T03:26:33;11.40;78.40
69328;DHT22;56472;52.114;5.492;2023-03-20T03:29:09;11.40;78.40
69328;DHT22;56472;52.114;5.492;2023-03-20T03:31:38;11.40;78.40
69328;DHT22;56472;52.114;5.492;2023-03-20T03:34:10;11.30;78.30
69328;DHT22;56472;52.114;5.492;2023-03-20T03:37:00;11.30;78.20
69328;DHT22;56472;52.114;5.492;2023-03-20T03:39:36;11.30;78.20
69328;DHT22;56472;52.114;5.492;2023-03-20T03:42:17;11.20;78.10
69328;DHT22;56472;52.114;5.492;2023-03-20T03:45:00;11.20;78.10
69328;DHT22;56472;52.114;5.492;2023-03-20T03:47:53;11.20;78.00
69328;DHT22;56472;52.114;5.492;2023-03-20T03:50:29;11.10;78.00
69328;DHT22;56472;52.114;5.492;2023-03-20T03:53:03;11.10;78.00
69328;DHT22;56472;52.114;5.492;2023-03-20T03:55:36;11.10;78.00
69328;DHT22;56472;52.114;5.492;2023-03-20T03:58:14;11.00;78.20
69328;DHT22;56472;52.114;5.492;2023-03-20T04:00:44;11.00;78.10
69328;DHT22;56472;52.114;5.492;2023-03-20T04:03:14;10.90;78.10
69328;DHT22;56472;52.114;5.492;2023-03-20T04:05:43;10.90;78.10
69328;DHT22;56472;52.114;5.492;2023-03-20T04:08:13;10.90;78.10
69328;DHT22;56472;52.114;5.492;2023-03-20T04:10:41;10.90;78.10
69328;DHT22;56472;52.114;5.492;2023-03-20T04:13:08;10.80;78.00
69328;DHT22;56472;52.114;5.492;2023-03-20T04:15:36;10.80;78.90
69328;DHT22;56472;52.114;5.492;2023-03-20T04:18:05;10.80;78.20
69328;DHT22;56472;52.114;5.492;2023-03-20T04:20:33;10.80;78.20
69328;DHT22;56472;52.114;5.492;2023-03-20T04:23:00;10.80;78.30
69328;DHT22;56472;52.114;5.492;2023-03-20T04:25:28;10.70;78.40
69328;DHT22;56472;52.114;5.492;2023-03-20T04:27:56;10.80;78.60
69328;DHT22;56472;52.114;5.492;2023-03-20T04:30:43;10.70;78.50
69328;DHT22;56472;52.114;5.492;2023-03-20T04:33:27;10.80;78.60
69328;DHT22;56472;52.114;5.492;2023-03-20T04:36:13;10.80;78.60
69328;DHT22;56472;52.114;5.492;2023-03-20T04:38:40;10.80;78.50
69328;DHT22;56472;52.114;5.492;2023-03-20T04:41:07;10.70;78.50
69328;DHT22;56472;52.114;5.492;2023-03-20T04:43:35;10.70;78.50
69328;DHT22;56472;52.114;5.492;2023-03-20T04:46:03;10.70;78.70
69328;DHT22;56472;52.114;5.492;2023-03-20T04:48:30;10.70;78.70
69328;DHT22;56472;52.114;5.492;2023-03-20T04:50:57;10.70;78.70
69328;DHT22;56472;52.114;5.492;2023-03-20T04:53:36;10.70;78.70
69328;DHT22;56472;52.114;5.492;2023-03-20T04:56:03;10.70;78.70
69328;DHT22;56472;52.114;5.492;2023-03-20T04:58:31;10.70;78.70
69328;DHT22;56472;52.114;5.492;2023-03-20T05:00:59;10.70;78.60
69328;DHT22;56472;52.114;5.492;2023-03-20T05:03:26;10.70;78.70
69328;DHT22;56472;52.114;5.492;2023-03-20T05:05:53;10.70;78.80
69328;DHT22;56472;52.114;5.492;2023-03-20T05:08:20;10.70;78.80
69328;DHT22;56472;52.114;5.492;2023-03-20T05:10:47;10.70;78.80
69328;DHT22;56472;52.114;5.492;2023-03-20T05:13:37;10.70;78.80
69328;DHT22;56472;52.114;5.492;2023-03-20T05:16:30;10.60;78.80
69328;DHT22;56472;52.114;5.492;2023-03-20T05:19:04;10.60;78.80
69328;DHT22;56472;52.114;5.492;2023-03-20T05:22:01;10.60;78.80
69328;DHT22;56472;52.114;5.492;2023-03-20T05:24:51;10.60;78.80
69328;DHT22;56472;52.114;5.492;2023-03-20T05:27:36;10.60;78.90
69328;DHT22;56472;52.114;5.492;2023-03-20T05:30:25;10.60;79.00
69328;DHT22;56472;52.114;5.492;2023-03-20T05:33:18;10.60;78.90
69328;DHT22;56472;52.114;5.492;2023-03-20T05:35:55;10.60;78.80
69328;DHT22;56472;52.114;5.492;2023-03-20T05:38:42;10.60;78.90
69328;DHT22;56472;52.114;5.492;2023-03-20T05:41:28;10.60;78.90
69328;DHT22;56472;52.114;5.492;2023-03-20T05:44:06;10.60;78.90
69328;DHT22;56472;52.114;5.492;2023-03-20T05:46:53;10.60;79.00
69328;DHT22;56472;52.114;5.492;2023-03-20T05:49:40;10.60;79.00
69328;DHT22;56472;52.114;5.492;2023-03-20T05:52:19;10.60;78.90
69328;DHT22;56472;52.114;5.492;2023-03-20T05:55:22;10.60;79.10
69328;DHT22;56472;52.114;5.492;2023-03-20T05:58:27;10.60;79.00
69328;DHT22;56472;52.114;5.492;2023-03-20T06:01:18;10.60;79.10
69328;DHT22;56472;52.114;5.492;2023-03-20T06:04:06;10.60;79.20
69328;DHT22;56472;52.114;5.492;2023-03-20T06:06:52;10.60;79.20
69328;DHT22;56472;52.114;5.492;2023-03-20T06:09:19;10.60;79.10
69328;DHT22;56472;52.114;5.492;2023-03-20T06:11:47;10.60;79.10
69328;DHT22;56472;52.114;5.492;2023-03-20T06:14:16;10.60;79.10
69328;DHT22;56472;52.114;5.492;2023-03-20T06:16:49;10.60;79.00
69328;DHT22;56472;52.114;5.492;2023-03-20T06:19:15;10.60;79.00
69328;DHT22;56472;52.114;5.492;2023-03-20T06:21:42;10.60;79.00
69328;DHT22;56472;52.114;5.492;2023-03-20T06:24:13;10.70;79.00
69328;DHT22;56472;52.114;5.492;2023-03-20T06:26:41;10.70;79.00
69328;DHT22;56472;52.114;5.492;2023-03-20T06:29:10;10.70;79.10
69328;DHT22;56472;52.114;5.492;2023-03-20T06:31:37;10.70;79.00
69328;DHT22;56472;52.114;5.492;2023-03-20T06:34:07;10.70;78.90
69328;DHT22;56472;52.114;5.492;2023-03-20T06:36:40;10.70;78.80
69328;DHT22;56472;52.114;5.492;2023-03-20T06:39:16;10.70;78.90
69328;DHT22;56472;52.114;5.492;2023-03-20T06:41:44;10.70;78.90
69328;DHT22;56472;52.114;5.492;2023-03-20T06:44:10;10.70;79.00
69328;DHT22;56472;52.114;5.492;2023-03-20T06:47:13;10.70;78.90
69328;DHT22;56472;52.114;5.492;2023-03-20T06:49:41;10.60;78.80
69328;DHT22;56472;52.114;5.492;2023-03-20T06:52:16;10.60;78.90
69328;DHT22;56472;52.114;5.492;2023-03-20T06:54:49;10.60;79.00
69328;DHT22;56472;52.114;5.492;2023-03-20T06:57:17;10.60;79.20
69328;DHT22;56472;52.114;5.492;2023-03-20T06:59:44;10.60;79.20
69328;DHT22;56472;52.114;5.492;2023-03-20T07:02:11;10.60;79.20
69328;DHT22;56472;52.114;5.492;2023-03-20T07:04:38;10.60;79.20
69328;DHT22;56472;52.114;5.492;2023-03-20T07:07:05;10.60;79.10
69328;DHT22;56472;52.114;5.492;2023-03-20T07:09:34;10.60;79.20
69328;DHT22;56472;52.114;5.492;2023-03-20T07:12:01;10.60;79.20
69328;DHT22;56472;52.114;5.492;2023-03-20T07:14:30;10.60;79.10
69328;DHT22;56472;52.114;5.492;2023-03-20T07:17:01;10.60;79.20
69328;DHT22;56472;52.114;5.492;2023-03-20T07:19:28;10.60;79.20
69328;DHT22;56472;52.114;5.492;2023-03-20T07:21:59;10.60;79.20
69328;DHT22;56472;52.114;5.492;2023-03-20T07:24:37;10.60;79.10
69328;DHT22;56472;52.114;5.492;2023-03-20T07:27:04;10.60;79.00
69328;DHT22;56472;52.114;5.492;2023-03-20T07:29:32;10.60;79.00
69328;DHT22;56472;52.114;5.492;2023-03-20T07:31:59;10.60;79.20
69328;DHT22;56472;52.114;5.492;2023-03-20T07:34:33;10.60;79.40
69328;DHT22;56472;52.114;5.492;2023-03-20T07:37:00;10.60;79.40
69328;DHT22;56472;52.114;5.492;2023-03-20T07:39:29;10.60;79.50
69328;DHT22;56472;52.114;5.492;2023-03-20T07:42:25;10.60;79.40
69328;DHT22;56472;52.114;5.492;2023-03-20T07:45:13;10.60;79.50
69328;DHT22;56472;52.114;5.492;2023-03-20T07:47:44;10.60;79.40
69328;DHT22;56472;52.114;5.492;2023-03-20T07:50:13;10.60;79.50
69328;DHT22;56472;52.114;5.492;2023-03-20T07:52:48;10.60;79.50
69328;DHT22;56472;52.114;5.492;2023-03-20T07:55:15;10.60;79.40
69328;DHT22;56472;52.114;5.492;2023-03-20T07:57:44;10.60;79.50
69328;DHT22;56472;52.114;5.492;2023-03-20T08:00:11;10.70;79.40
69328;DHT22;56472;52.114;5.492;2023-03-20T08:02:38;10.70;79.40
69328;DHT22;56472;52.114;5.492;2023-03-20T08:05:06;10.70;79.30
69328;DHT22;56472;52.114;5.492;2023-03-20T08:07:34;10.70;79.20
69328;DHT22;56472;52.114;5.492;2023-03-20T08:10:02;10.60;79.20
69328;DHT22;56472;52.114;5.492;2023-03-20T08:12:29;10.70;79.20
69328;DHT22;56472;52.114;5.492;2023-03-20T08:14:56;10.70;79.10
69328;DHT22;56472;52.114;5.492;2023-03-20T08:17:23;10.70;79.20
69328;DHT22;56472;52.114;5.492;2023-03-20T08:19:50;10.70;79.10
69328;DHT22;56472;52.114;5.492;2023-03-20T08:22:16;10.80;79.20
69328;DHT22;56472;52.114;5.492;2023-03-20T08:24:43;10.80;79.20
69328;DHT22;56472;52.114;5.492;2023-03-20T08:27:10;10.80;79.00
69328;DHT22;56472;52.114;5.492;2023-03-20T08:29:37;10.90;79.00
69328;DHT22;56472;52.114;5.492;2023-03-20T08:32:05;10.90;79.00
69328;DHT22;56472;52.114;5.492;2023-03-20T08:34:32;10.90;78.70
69328;DHT22;56472;52.114;5.492;2023-03-20T08:36:59;11.00;78.60
69328;DHT22;56472;52.114;5.492;2023-03-20T08:39:28;11.00;78.40
69328;DHT22;56472;52.114;5.492;2023-03-20T08:41:54;11.00;78.20
69328;DHT22;56472;52.114;5.492;2023-03-20T08:44:21;11.00;78.10
69328;DHT22;56472;52.114;5.492;2023-03-20T08:46:48;11.10;78.00
69328;DHT22;56472;52.114;5.492;2023-03-20T08:49:15;11.10;77.90
69328;DHT22;56472;52.114;5.492;2023-03-20T08:51:42;11.10;77.70
69328;DHT22;56472;52.114;5.492;2023-03-20T08:54:10;11.10;77.40
69328;DHT22;56472;52.114;5.492;2023-03-20T08:56:37;11.20;77.30
69328;DHT22;56472;52.114;5.492;2023-03-20T08:59:04;11.20;77.60
69328;DHT22;56472;52.114;5.492;2023-03-20T09:01:31;11.20;77.60
69328;DHT22;56472;52.114;5.492;2023-03-20T09:04:14;11.20;77.40
69328;DHT22;56472;52.114;5.492;2023-03-20T09:06:41;11.30;77.30
69328;DHT22;56472;52.114;5.492;2023-03-20T09:09:08;11.30;77.40
69328;DHT22;56472;52.114;5.492;2023-03-20T09:11:35;11.40;77.30
69328;DHT22;56472;52.114;5.492;2023-03-20T09:14:02;11.40;76.90
69328;DHT22;56472;52.114;5.492;2023-03-20T09:16:29;11.40;76.70
69328;DHT22;56472;52.114;5.492;2023-03-20T09:18:56;11.40;76.30
69328;DHT22;56472;52.114;5.492;2023-03-20T09:21:23;11.50;76.20
69328;DHT22;56472;52.114;5.492;2023-03-20T09:23:49;11.40;76.00
69328;DHT22;56472;52.114;5.492;2023-03-20T09:26:16;11.40;76.20
69328;DHT22;56472;52.114;5.492;2023-03-20T09:28:43;11.40;76.60
69328;DHT22;56472;52.114;5.492;2023-03-20T09:31:10;11.40;76.80
69328;DHT22;56472;52.114;5.492;2023-03-20T09:33:37;11.40;77.10
69328;DHT22;56472;52.114;5.492;2023-03-20T09:36:05;11.40;77.40
69328;DHT22;56472;52.114;5.492;2023-03-20T09:38:34;11.40;77.60
69328;DHT22;56472;52.114;5.492;2023-03-20T09:41:02;11.40;77.70
69328;DHT22;56472;52.114;5.492;2023-03-20T09:46:31;11.50;78.30
69328;DHT22;56472;52.114;5.492;2023-03-20T09:49:01;11.50;78.00
69328;DHT22;56472;52.114;5.492;2023-03-20T09:51:54;11.50;78.30
69328;DHT22;56472;52.114;5.492;2023-03-20T09:54:23;11.50;78.40
69328;DHT22;56472;52.114;5.492;2023-03-20T09:56:51;11.50;78.40
69328;DHT22;56472;52.114;5.492;2023-03-20T09:59:20;11.60;78.90
69328;DHT22;56472;52.114;5.492;2023-03-20T10:01:55;11.60;78.90
69328;DHT22;56472;52.114;5.492;2023-03-20T10:04:26;11.60;79.00
69328;DHT22;56472;52.114;5.492;2023-03-20T10:06:55;11.60;78.90
69328;DHT22;56472;52.114;5.492;2023-03-20T10:09:27;11.60;79.20
69328;DHT22;56472;52.114;5.492;2023-03-20T10:15:12;11.70;79.50
69328;DHT22;56472;52.114;5.492;2023-03-20T10:20:34;11.90;79.50
69328;DHT22;56472;52.114;5.492;2023-03-20T10:23:35;11.90;79.50
69328;DHT22;56472;52.114;5.492;2023-03-20T10:26:17;12.00;79.00
69328;DHT22;56472;52.114;5.492;2023-03-20T10:29:00;12.00;78.50
69328;DHT22;56472;52.114;5.492;2023-03-20T10:32:18;12.00;78.70
69328;DHT22;56472;52.114;5.492;2023-03-20T10:40:31;12.10;79.00
69328;DHT22;56472;52.114;5.492;2023-03-20T10:43:02;12.10;78.70
69328;DHT22;56472;52.114;5.492;2023-03-20T10:48:29;12.10;78.30
69328;DHT22;56472;52.114;5.492;2023-03-20T10:51:00;12.20;78.60
69328;DHT22;56472;52.114;5.492;2023-03-20T10:53:39;12.20;77.90
69328;DHT22;56472;52.114;5.492;2023-03-20T10:56:28;12.20;77.90
69328;DHT22;56472;52.114;5.492;2023-03-20T10:59:24;12.20;77.70
69328;DHT22;56472;52.114;5.492;2023-03-20T11:01:51;12.10;76.90
69328;DHT22;56472;52.114;5.492;2023-03-20T11:04:19;12.10;77.40
69328;DHT22;56472;52.114;5.492;2023-03-20T11:09:24;12.10;78.20
69328;DHT22;56472;52.114;5.492;2023-03-20T11:11:56;12.10;77.80
69328;DHT22;56472;52.114;5.492;2023-03-20T11:14:26;12.10;77.90
69328;DHT22;56472;52.114;5.492;2023-03-20T11:17:00;12.10;78.40
69328;DHT22;56472;52.114;5.492;2023-03-20T11:19:38;12.10;78.70
69328;DHT22;56472;52.114;5.492;2023-03-20T11:24:50;12.20;78.30
69328;DHT22;56472;52.114;5.492;2023-03-20T11:27:40;12.30;78.40
69328;DHT22;56472;52.114;5.492;2023-03-20T11:30:11;12.30;78.00
69328;DHT22;56472;52.114;5.492;2023-03-20T11:32:49;12.20;78.10
69328;DHT22;56472;52.114;5.492;2023-03-20T11:35:27;12.20;78.10
69328;DHT22;56472;52.114;5.492;2023-03-20T11:38:15;12.20;77.90
69328;DHT22;56472;52.114;5.492;2023-03-20T11:40:43;12.20;78.00
69328;DHT22;56472;52.114;5.492;2023-03-20T11:43:24;12.20;78.40
69328;DHT22;56472;52.114;5.492;2023-03-20T11:45:56;12.20;78.50
69328;DHT22;56472;52.114;5.492;2023-03-20T11:48:35;12.20;78.60
69328;DHT22;56472;52.114;5.492;2023-03-20T11:51:12;12.20;78.90
69328;DHT22;56472;52.114;5.492;2023-03-20T11:53:55;12.20;78.80
69328;DHT22;56472;52.114;5.492;2023-03-20T11:56:26;12.10;78.90
69328;DHT22;56472;52.114;5.492;2023-03-20T11:59:13;12.10;79.00
69328;DHT22;56472;52.114;5.492;2023-03-20T12:01:49;12.20;79.20
69328;DHT22;56472;52.114;5.492;2023-03-20T12:06:47;12.20;79.30
69328;DHT22;56472;52.114;5.492;2023-03-20T12:14:39;12.20;80.00
69328;DHT22;56472;52.114;5.492;2023-03-20T12:19:45;12.20;79.90
69328;DHT22;56472;52.114;5.492;2023-03-20T12:22:36;12.30;80.40
69328;DHT22;56472;52.114;5.492;2023-03-20T12:25:24;12.30;80.30
69328;DHT22;56472;52.114;5.492;2023-03-20T12:28:02;12.30;80.30
69328;DHT22;56472;52.114;5.492;2023-03-20T12:33:29;12.40;80.50
69328;DHT22;56472;52.114;5.492;2023-03-20T12:35:57;12.40;80.30
69328;DHT22;56472;52.114;5.492;2023-03-20T12:38:30;12.40;80.10
69328;DHT22;56472;52.114;5.492;2023-03-20T12:41:06;12.40;79.80
69328;DHT22;56472;52.114;5.492;2023-03-20T12:51:43;12.30;80.10
69328;DHT22;56472;52.114;5.492;2023-03-20T12:57:27;12.30;80.80
69328;DHT22;56472;52.114;5.492;2023-03-20T13:21:51;12.40;81.70
69328;DHT22;56472;52.114;5.492;2023-03-20T13:29:52;12.30;81.90
69328;DHT22;56472;52.114;5.492;2023-03-20T13:33:02;12.30;81.60
69328;DHT22;56472;52.114;5.492;2023-03-20T13:38:40;12.40;82.10
69328;DHT22;56472;52.114;5.492;2023-03-20T13:41:09;12.40;82.40
69328;DHT22;56472;52.114;5.492;2023-03-20T13:43:46;12.40;82.70
69328;DHT22;56472;52.114;5.492;2023-03-20T13:48:49;12.50;82.50
69328;DHT22;56472;52.114;5.492;2023-03-20T13:56:52;12.50;82.20
69328;DHT22;56472;52.114;5.492;2023-03-20T14:04:26;12.40;82.00
69328;DHT22;56472;52.114;5.492;2023-03-20T14:06:57;12.50;83.20
69328;DHT22;56472;52.114;5.492;2023-03-20T14:11:58;12.50;82.50
69328;DHT22;56472;52.114;5.492;2023-03-20T14:14:31;12.50;82.50
69328;DHT22;56472;52.114;5.492;2023-03-20T14:17:12;12.50;82.50
69328;DHT22;56472;52.114;5.492;2023-03-20T14:19:40;12.50;82.50
69328;DHT22;56472;52.114;5.492;2023-03-20T14:22:17;12.60;82.30
69328;DHT22;56472;52.114;5.492;2023-03-20T14:24:55;12.50;82.10
69328;DHT22;56472;52.114;5.492;2023-03-20T14:27:28;12.50;82.20
69328;DHT22;56472;52.114;5.492;2023-03-20T14:41:36;12.50;82.00
69328;DHT22;56472;52.114;5.492;2023-03-20T14:44:16;12.50;82.90
69328;DHT22;56472;52.114;5.492;2023-03-20T14:47:00;12.50;82.80
69328;DHT22;56472;52.114;5.492;2023-03-20T14:49:49;12.50;81.90
69328;DHT22;56472;52.114;5.492;2023-03-20T14:54:53;12.40;81.90
69328;DHT22;56472;52.114;5.492;2023-03-20T14:57:33;12.30;82.20
69328;DHT22;56472;52.114;5.492;2023-03-20T15:02:52;12.40;82.70
69328;DHT22;56472;52.114;5.492;2023-03-20T15:05:29;12.40;82.90
69328;DHT22;56472;52.114;5.492;2023-03-20T15:07:57;12.40;83.10
69328;DHT22;56472;52.114;5.492;2023-03-20T15:10:28;12.40;83.10
69328;DHT22;56472;52.114;5.492;2023-03-20T15:12:55;12.40;83.00
69328;DHT22;56472;52.114;5.492;2023-03-20T15:15:28;12.30;83.00
69328;DHT22;56472;52.114;5.492;2023-03-20T15:18:11;12.30;83.20
69328;DHT22;56472;52.114;5.492;2023-03-20T15:20:42;12.30;83.40
69328;DHT22;56472;52.114;5.492;2023-03-20T15:23:09;12.30;83.60
69328;DHT22;56472;52.114;5.492;2023-03-20T15:25:45;12.30;83.60
69328;DHT22;56472;52.114;5.492;2023-03-20T15:30:47;12.30;83.60
69328;DHT22;56472;52.114;5.492;2023-03-20T15:33:35;12.30;83.60
69328;DHT22;56472;52.114;5.492;2023-03-20T15:36:10;12.30;83.70
69328;DHT22;56472;52.114;5.492;2023-03-20T15:38:40;12.30;83.70
69328;DHT22;56472;52.114;5.492;2023-03-20T15:41:07;12.30;83.70
69328;DHT22;56472;52.114;5.492;2023-03-20T15:43:49;12.30;83.80
69328;DHT22;56472;52.114;5.492;2023-03-20T15:46:16;12.30;84.00
69328;DHT22;56472;52.114;5.492;2023-03-20T15:48:48;12.20;84.20
69328;DHT22;56472;52.114;5.492;2023-03-20T15:51:16;12.20;84.30
69328;DHT22;56472;52.114;5.492;2023-03-20T15:53:46;12.20;84.30
69328;DHT22;56472;52.114;5.492;2023-03-20T15:56:16;12.20;84.30
69328;DHT22;56472;52.114;5.492;2023-03-20T15:58:47;12.20;84.40
69328;DHT22;56472;52.114;5.492;2023-03-20T16:01:18;12.20;84.50
69328;DHT22;56472;52.114;5.492;2023-03-20T16:03:45;12.20;84.60
69328;DHT22;56472;52.114;5.492;2023-03-20T16:06:15;12.20;84.70
69328;DHT22;56472;52.114;5.492;2023-03-20T16:08:43;12.20;84.70
69328;DHT22;56472;52.114;5.492;2023-03-20T16:11:15;12.20;84.80
69328;DHT22;56472;52.114;5.492;2023-03-20T16:13:46;12.20;85.00
69328;DHT22;56472;52.114;5.492;2023-03-20T16:16:19;12.20;85.00
69328;DHT22;56472;52.114;5.492;2023-03-20T16:18:47;12.20;84.90
69328;DHT22;56472;52.114;5.492;2023-03-20T16:21:26;12.20;85.00
69328;DHT22;56472;52.114;5.492;2023-03-20T16:23:56;12.20;85.10
69328;DHT22;56472;52.114;5.492;2023-03-20T16:26:25;12.20;85.20
69328;DHT22;56472;52.114;5.492;2023-03-20T16:28:58;12.20;85.30
69328;DHT22;56472;52.114;5.492;2023-03-20T16:31:30;12.20;85.40
69328;DHT22;56472;52.114;5.492;2023-03-20T16:34:04;12.20;85.50
69328;DHT22;56472;52.114;5.492;2023-03-20T16:36:34;12.20;85.50
69328;DHT22;56472;52.114;5.492;2023-03-20T16:41:37;12.20;85.50
69328;DHT22;56472;52.114;5.492;2023-03-20T16:44:09;12.20;85.60
69328;DHT22;56472;52.114;5.492;2023-03-20T16:51:59;12.20;85.50
69328;DHT22;56472;52.114;5.492;2023-03-20T16:54:29;12.20;85.60
69328;DHT22;56472;52.114;5.492;2023-03-20T16:56:57;12.20;85.60
69328;DHT22;56472;52.114;5.492;2023-03-20T16:59:25;12.20;85.60
69328;DHT22;56472;52.114;5.492;2023-03-20T17:01:58;12.20;85.70
69328;DHT22;56472;52.114;5.492;2023-03-20T17:04:32;12.20;85.80
69328;DHT22;56472;52.114;5.492;2023-03-20T17:07:05;12.20;85.80
69328;DHT22;56472;52.114;5.492;2023-03-20T17:09:32;12.20;85.70
69328;DHT22;56472;52.114;5.492;2023-03-20T17:14:31;12.20;86.10
69328;DHT22;56472;52.114;5.492;2023-03-20T17:16:58;12.20;86.20
69328;DHT22;56472;52.114;5.492;2023-03-20T17:19:26;12.20;86.30
69328;DHT22;56472;52.114;5.492;2023-03-20T17:21:53;12.20;86.30
69328;DHT22;56472;52.114;5.492;2023-03-20T17:24:19;12.20;86.30
69328;DHT22;56472;52.114;5.492;2023-03-20T17:26:52;12.20;86.40
69328;DHT22;56472;52.114;5.492;2023-03-20T17:29:20;12.20;86.50
69328;DHT22;56472;52.114;5.492;2023-03-20T17:31:48;12.20;86.50
69328;DHT22;56472;52.114;5.492;2023-03-20T17:34:15;12.20;86.50
69328;DHT22;56472;52.114;5.492;2023-03-20T17:36:42;12.20;86.50
69328;DHT22;56472;52.114;5.492;2023-03-20T17:39:16;12.30;86.60
69328;DHT22;56472;52.114;5.492;2023-03-20T17:41:45;12.30;86.70
69328;DHT22;56472;52.114;5.492;2023-03-20T17:44:12;12.30;86.80
69328;DHT22;56472;52.114;5.492;2023-03-20T17:46:39;12.30;86.80
69328;DHT22;56472;52.114;5.492;2023-03-20T17:49:23;12.20;86.80
69328;DHT22;56472;52.114;5.492;2023-03-20T17:51:53;12.20;86.90
69328;DHT22;56472;52.114;5.492;2023-03-20T17:54:20;12.20;86.90
69328;DHT22;56472;52.114;5.492;2023-03-20T17:56:47;12.20;87.00
69328;DHT22;56472;52.114;5.492;2023-03-20T17:59:14;12.20;87.00
69328;DHT22;56472;52.114;5.492;2023-03-20T18:01:41;12.20;87.10
69328;DHT22;56472;52.114;5.492;2023-03-20T18:04:08;12.20;87.20
69328;DHT22;56472;52.114;5.492;2023-03-20T18:06:35;12.20;87.20
69328;DHT22;56472;52.114;5.492;2023-03-20T18:09:03;12.20;87.30
69328;DHT22;56472;52.114;5.492;2023-03-20T18:11:30;12.20;87.30
69328;DHT22;56472;52.114;5.492;2023-03-20T18:13:57;12.30;87.40
69328;DHT22;56472;52.114;5.492;2023-03-20T18:16:26;12.20;87.30
69328;DHT22;56472;52.114;5.492;2023-03-20T18:18:53;12.30;87.50
69328;DHT22;56472;52.114;5.492;2023-03-20T18:21:20;12.30;87.50
69328;DHT22;56472;52.114;5.492;2023-03-20T18:23:47;12.30;87.50
69328;DHT22;56472;52.114;5.492;2023-03-20T18:26:20;12.30;87.50
69328;DHT22;56472;52.114;5.492;2023-03-20T18:28:49;12.30;87.60
69328;DHT22;56472;52.114;5.492;2023-03-20T18:31:17;12.30;87.70
69328;DHT22;56472;52.114;5.492;2023-03-20T18:33:49;12.30;87.80
69328;DHT22;56472;52.114;5.492;2023-03-20T18:36:19;12.20;87.80
69328;DHT22;56472;52.114;5.492;2023-03-20T18:38:47;12.30;88.00
69328;DHT22;56472;52.114;5.492;2023-03-20T18:41:14;12.30;88.00
69328;DHT22;56472;52.114;5.492;2023-03-20T18:43:41;12.30;88.00
69328;DHT22;56472;52.114;5.492;2023-03-20T18:46:16;12.30;88.10